To NAV CANADA Home Page Login to a new session Search on AWWS site Feedback and Comments Disclaimer Vers la page française équivalente Tips FAQ What's new on the site To the Forecasts and Observations / NOTAM section To "File a Flight Plan" website Publications and other links Update of the User's profile FIC Telephone Numbers My Weather Data Folder Route Weather Data Regional Weather Data Local Weather Data To the Forecasts and Observations / NOTAM section
Request Generated 05/05/2016 at 23:51:46 UTC . Weather information available at that time is displayed.

METAR/TAF

MONTREAL/PIERRE-ELLIOTT-TRUDEAU INTL/QC    

SPECI CYUL 052334Z 05011G17KT 15SM FEW060 FEW240 15/03 A2980 RMK
SC1CI1 WSHFT 2258 SLP093 DENSITY ALT 300FT=
METAR CYUL 052300Z 03013G20KT 15SM SCT060 SCT240 16/03 A2980 RMK
SC3CI1 SLP093 DENSITY ALT 300FT=
METAR CYUL 052200Z 04010G18KT 010V070 15SM SCT055 BKN240 17/04 A2980
RMK SC3CI2 SLP094 DENSITY ALT 400FT=
METAR CYUL 052100Z 07015KT 30SM SCT055 BKN240 16/04 A2980 RMK CU3CI3
SLP093 DENSITY ALT 400FT=

TAF CYUL 052338Z 0600/0624 03010G20KT P6SM SCT060
FM060200 03010KT P6SM FEW030
BECMG 0615/0617 04015KT
FM061900 05015KT P6SM SKC
RMK NXT FCST BY 060300Z=
Your time UTC time
Weather data provided by Environment Canada and NAV CANADA